sensor_id;sensor_type;location;lat;lon;timestamp;P1;durP1;ratioP1;P2;durP2;ratioP2
17953;SDS011;9102;53.548;9.926;2022-08-03T00:01:28;5.78;;;3.92;;
17953;SDS011;9102;53.548;9.926;2022-08-03T00:03:55;4.32;;;3.85;;
17953;SDS011;9102;53.548;9.926;2022-08-03T00:06:22;6.97;;;3.88;;
17953;SDS011;9102;53.548;9.926;2022-08-03T00:08:50;6.00;;;3.85;;
17953;SDS011;9102;53.548;9.926;2022-08-03T00:11:17;5.57;;;4.00;;
17953;SDS011;9102;53.548;9.926;2022-08-03T00:13:45;7.55;;;3.95;;
17953;SDS011;9102;53.548;9.926;2022-08-03T00:16:12;6.38;;;4.38;;
17953;SDS011;9102;53.548;9.926;2022-08-03T00:18:39;6.43;;;4.22;;
17953;SDS011;9102;53.548;9.926;2022-08-03T00:21:06;8.48;;;4.25;;
17953;SDS011;9102;53.548;9.926;2022-08-03T00:23:33;8.05;;;4.07;;
17953;SDS011;9102;53.548;9.926;2022-08-03T00:26:01;6.85;;;4.60;;
17953;SDS011;9102;53.548;9.926;2022-08-03T00:28:28;8.05;;;4.65;;
17953;SDS011;9102;53.548;9.926;2022-08-03T00:30:55;4.47;;;3.70;;
17953;SDS011;9102;53.548;9.926;2022-08-03T00:33:22;4.00;;;3.60;;
17953;SDS011;9102;53.548;9.926;2022-08-03T00:35:49;7.15;;;4.07;;
17953;SDS011;9102;53.548;9.926;2022-08-03T00:38:17;7.78;;;4.50;;
17953;SDS011;9102;53.548;9.926;2022-08-03T00:40:44;4.90;;;4.20;;
17953;SDS011;9102;53.548;9.926;2022-08-03T00:43:12;5.50;;;4.38;;
17953;SDS011;9102;53.548;9.926;2022-08-03T00:45:41;6.22;;;4.50;;
17953;SDS011;9102;53.548;9.926;2022-08-03T00:48:09;5.80;;;4.40;;
17953;SDS011;9102;53.548;9.926;2022-08-03T00:50:37;10.48;;;5.03;;
17953;SDS011;9102;53.548;9.926;2022-08-03T00:53:05;6.72;;;4.80;;
17953;SDS011;9102;53.548;9.926;2022-08-03T00:55:33;8.73;;;4.93;;
17953;SDS011;9102;53.548;9.926;2022-08-03T00:58:01;9.35;;;4.70;;
17953;SDS011;9102;53.548;9.926;2022-08-03T01:00:32;6.70;;;4.45;;
17953;SDS011;9102;53.548;9.926;2022-08-03T01:03:02;4.88;;;4.32;;
17953;SDS011;9102;53.548;9.926;2022-08-03T01:05:30;9.50;;;5.22;;
17953;SDS011;9102;53.548;9.926;2022-08-03T01:08:01;6.90;;;4.93;;
17953;SDS011;9102;53.548;9.926;2022-08-03T01:10:33;9.38;;;4.63;;
17953;SDS011;9102;53.548;9.926;2022-08-03T01:13:07;4.85;;;4.30;;
17953;SDS011;9102;53.548;9.926;2022-08-03T01:15:45;5.00;;;4.50;;
17953;SDS011;9102;53.548;9.926;2022-08-03T01:18:19;6.05;;;4.50;;
17953;SDS011;9102;53.548;9.926;2022-08-03T01:20:51;6.10;;;4.53;;
17953;SDS011;9102;53.548;9.926;2022-08-03T01:23:26;7.75;;;4.55;;
17953;SDS011;9102;53.548;9.926;2022-08-03T01:26:05;6.18;;;4.70;;
17953;SDS011;9102;53.548;9.926;2022-08-03T01:28:47;4.82;;;4.32;;
17953;SDS011;9102;53.548;9.926;2022-08-03T01:31:25;5.88;;;4.75;;
17953;SDS011;9102;53.548;9.926;2022-08-03T01:33:58;7.82;;;4.47;;
17953;SDS011;9102;53.548;9.926;2022-08-03T01:36:29;5.95;;;4.82;;
17953;SDS011;9102;53.548;9.926;2022-08-03T01:39:00;5.47;;;4.72;;
17953;SDS011;9102;53.548;9.926;2022-08-03T01:41:34;6.03;;;4.88;;
17953;SDS011;9102;53.548;9.926;2022-08-03T01:44:05;6.68;;;4.25;;
17953;SDS011;9102;53.548;9.926;2022-08-03T01:46:35;8.10;;;4.80;;
17953;SDS011;9102;53.548;9.926;2022-08-03T01:49:05;7.93;;;5.05;;
17953;SDS011;9102;53.548;9.926;2022-08-03T01:51:33;5.90;;;4.65;;
17953;SDS011;9102;53.548;9.926;2022-08-03T01:54:01;5.65;;;4.78;;
17953;SDS011;9102;53.548;9.926;2022-08-03T01:56:30;6.78;;;4.82;;
17953;SDS011;9102;53.548;9.926;2022-08-03T01:58:57;8.68;;;5.25;;
17953;SDS011;9102;53.548;9.926;2022-08-03T02:01:27;9.70;;;5.32;;
17953;SDS011;9102;53.548;9.926;2022-08-03T02:03:57;5.90;;;5.20;;
17953;SDS011;9102;53.548;9.926;2022-08-03T02:06:25;7.18;;;5.50;;
17953;SDS011;9102;53.548;9.926;2022-08-03T02:08:54;7.55;;;5.13;;
17953;SDS011;9102;53.548;9.926;2022-08-03T02:11:22;7.35;;;5.07;;
17953;SDS011;9102;53.548;9.926;2022-08-03T02:13:49;8.38;;;4.95;;
17953;SDS011;9102;53.548;9.926;2022-08-03T02:16:16;7.05;;;5.20;;
17953;SDS011;9102;53.548;9.926;2022-08-03T02:18:44;6.32;;;4.82;;
17953;SDS011;9102;53.548;9.926;2022-08-03T02:21:14;6.75;;;5.30;;
17953;SDS011;9102;53.548;9.926;2022-08-03T02:23:41;6.88;;;5.22;;
17953;SDS011;9102;53.548;9.926;2022-08-03T02:26:10;8.10;;;5.30;;
17953;SDS011;9102;53.548;9.926;2022-08-03T02:28:40;8.15;;;5.07;;
17953;SDS011;9102;53.548;9.926;2022-08-03T02:31:10;8.00;;;4.80;;
17953;SDS011;9102;53.548;9.926;2022-08-03T02:33:41;6.65;;;5.40;;
17953;SDS011;9102;53.548;9.926;2022-08-03T02:36:12;8.13;;;5.60;;
17953;SDS011;9102;53.548;9.926;2022-08-03T02:38:42;8.35;;;5.70;;
17953;SDS011;9102;53.548;9.926;2022-08-03T02:41:12;8.60;;;5.90;;
17953;SDS011;9102;53.548;9.926;2022-08-03T02:43:42;6.20;;;5.20;;
17953;SDS011;9102;53.548;9.926;2022-08-03T02:46:11;5.68;;;5.10;;
17953;SDS011;9102;53.548;9.926;2022-08-03T02:48:39;6.10;;;5.35;;
17953;SDS011;9102;53.548;9.926;2022-08-03T02:51:08;8.35;;;6.00;;
17953;SDS011;9102;53.548;9.926;2022-08-03T02:53:37;9.30;;;5.68;;
17953;SDS011;9102;53.548;9.926;2022-08-03T02:56:05;6.00;;;5.13;;
17953;SDS011;9102;53.548;9.926;2022-08-03T02:58:34;7.25;;;5.13;;
17953;SDS011;9102;53.548;9.926;2022-08-03T03:01:02;7.60;;;5.57;;
17953;SDS011;9102;53.548;9.926;2022-08-03T03:03:29;6.88;;;5.65;;
17953;SDS011;9102;53.548;9.926;2022-08-03T03:05:57;8.38;;;6.07;;
17953;SDS011;9102;53.548;9.926;2022-08-03T03:08:24;6.63;;;5.75;;
17953;SDS011;9102;53.548;9.926;2022-08-03T03:10:53;7.13;;;5.50;;
17953;SDS011;9102;53.548;9.926;2022-08-03T03:13:20;7.90;;;5.90;;
17953;SDS011;9102;53.548;9.926;2022-08-03T03:15:48;6.95;;;5.20;;
17953;SDS011;9102;53.548;9.926;2022-08-03T03:18:15;6.20;;;5.60;;
17953;SDS011;9102;53.548;9.926;2022-08-03T03:20:43;8.40;;;5.55;;
17953;SDS011;9102;53.548;9.926;2022-08-03T03:23:11;6.88;;;5.57;;
17953;SDS011;9102;53.548;9.926;2022-08-03T03:25:39;8.73;;;5.75;;
17953;SDS011;9102;53.548;9.926;2022-08-03T03:28:08;7.40;;;5.85;;
17953;SDS011;9102;53.548;9.926;2022-08-03T03:30:36;9.30;;;5.72;;
17953;SDS011;9102;53.548;9.926;2022-08-03T03:33:03;7.35;;;5.70;;
17953;SDS011;9102;53.548;9.926;2022-08-03T03:35:31;8.20;;;5.80;;
17953;SDS011;9102;53.548;9.926;2022-08-03T03:37:58;9.15;;;6.45;;
17953;SDS011;9102;53.548;9.926;2022-08-03T03:40:25;6.90;;;6.05;;
17953;SDS011;9102;53.548;9.926;2022-08-03T03:42:53;6.20;;;5.57;;
17953;SDS011;9102;53.548;9.926;2022-08-03T03:45:21;7.30;;;6.10;;
17953;SDS011;9102;53.548;9.926;2022-08-03T03:47:49;8.60;;;6.10;;
17953;SDS011;9102;53.548;9.926;2022-08-03T03:50:16;8.95;;;6.20;;
17953;SDS011;9102;53.548;9.926;2022-08-03T03:52:44;7.43;;;6.40;;
17953;SDS011;9102;53.548;9.926;2022-08-03T03:55:14;9.23;;;6.80;;
17953;SDS011;9102;53.548;9.926;2022-08-03T03:57:41;12.48;;;7.07;;
17953;SDS011;9102;53.548;9.926;2022-08-03T04:00:09;11.90;;;6.00;;
17953;SDS011;9102;53.548;9.926;2022-08-03T04:02:38;9.50;;;6.65;;
17953;SDS011;9102;53.548;9.926;2022-08-03T04:05:06;11.07;;;6.90;;
17953;SDS011;9102;53.548;9.926;2022-08-03T04:07:53;11.32;;;7.68;;
17953;SDS011;9102;53.548;9.926;2022-08-03T04:10:42;9.93;;;7.22;;
17953;SDS011;9102;53.548;9.926;2022-08-03T04:13:26;10.20;;;6.82;;
17953;SDS011;9102;53.548;9.926;2022-08-03T04:15:58;10.88;;;7.45;;
17953;SDS011;9102;53.548;9.926;2022-08-03T04:18:28;12.75;;;7.20;;
17953;SDS011;9102;53.548;9.926;2022-08-03T04:20:57;11.68;;;7.93;;
17953;SDS011;9102;53.548;9.926;2022-08-03T04:23:27;9.57;;;6.88;;
17953;SDS011;9102;53.548;9.926;2022-08-03T04:25:58;10.90;;;7.53;;
17953;SDS011;9102;53.548;9.926;2022-08-03T04:28:27;10.85;;;7.43;;
17953;SDS011;9102;53.548;9.926;2022-08-03T04:30:56;14.95;;;7.03;;
17953;SDS011;9102;53.548;9.926;2022-08-03T04:33:24;9.63;;;6.80;;
17953;SDS011;9102;53.548;9.926;2022-08-03T04:35:54;8.95;;;6.90;;
17953;SDS011;9102;53.548;9.926;2022-08-03T04:38:24;10.13;;;7.43;;
17953;SDS011;9102;53.548;9.926;2022-08-03T04:40:52;8.63;;;7.05;;
17953;SDS011;9102;53.548;9.926;2022-08-03T04:43:20;10.13;;;7.32;;
17953;SDS011;9102;53.548;9.926;2022-08-03T04:45:48;8.40;;;6.90;;
17953;SDS011;9102;53.548;9.926;2022-08-03T04:48:16;8.38;;;6.60;;
17953;SDS011;9102;53.548;9.926;2022-08-03T04:50:44;7.07;;;5.78;;
17953;SDS011;9102;53.548;9.926;2022-08-03T04:53:13;12.88;;;6.50;;
17953;SDS011;9102;53.548;9.926;2022-08-03T04:55:41;12.10;;;7.10;;
17953;SDS011;9102;53.548;9.926;2022-08-03T04:58:08;7.72;;;6.38;;
17953;SDS011;9102;53.548;9.926;2022-08-03T05:00:36;7.65;;;5.85;;
17953;SDS011;9102;53.548;9.926;2022-08-03T05:03:03;7.30;;;6.45;;
17953;SDS011;9102;53.548;9.926;2022-08-03T05:05:30;9.63;;;6.68;;
17953;SDS011;9102;53.548;9.926;2022-08-03T05:07:57;10.70;;;7.13;;
17953;SDS011;9102;53.548;9.926;2022-08-03T05:10:25;13.52;;;7.30;;
17953;SDS011;9102;53.548;9.926;2022-08-03T05:12:52;10.20;;;6.88;;
17953;SDS011;9102;53.548;9.926;2022-08-03T05:15:19;11.57;;;6.70;;
17953;SDS011;9102;53.548;9.926;2022-08-03T05:17:45;11.45;;;7.43;;
17953;SDS011;9102;53.548;9.926;2022-08-03T05:20:13;10.90;;;6.90;;
17953;SDS011;9102;53.548;9.926;2022-08-03T05:22:40;9.02;;;6.68;;
17953;SDS011;9102;53.548;9.926;2022-08-03T05:25:06;13.05;;;6.90;;
17953;SDS011;9102;53.548;9.926;2022-08-03T05:27:35;9.63;;;7.30;;
17953;SDS011;9102;53.548;9.926;2022-08-03T05:30:02;23.08;;;13.90;;
17953;SDS011;9102;53.548;9.926;2022-08-03T05:32:30;12.45;;;8.10;;
17953;SDS011;9102;53.548;9.926;2022-08-03T05:34:57;9.95;;;6.72;;
17953;SDS011;9102;53.548;9.926;2022-08-03T05:37:24;6.97;;;6.15;;
17953;SDS011;9102;53.548;9.926;2022-08-03T05:39:50;8.80;;;6.47;;
17953;SDS011;9102;53.548;9.926;2022-08-03T05:42:17;9.23;;;6.97;;
17953;SDS011;9102;53.548;9.926;2022-08-03T05:44:45;11.80;;;7.40;;
17953;SDS011;9102;53.548;9.926;2022-08-03T05:47:12;7.60;;;6.35;;
17953;SDS011;9102;53.548;9.926;2022-08-03T05:49:39;12.45;;;6.95;;
17953;SDS011;9102;53.548;9.926;2022-08-03T05:52:06;8.15;;;6.70;;
17953;SDS011;9102;53.548;9.926;2022-08-03T05:54:33;9.32;;;5.95;;
17953;SDS011;9102;53.548;9.926;2022-08-03T05:56:59;8.02;;;6.25;;
17953;SDS011;9102;53.548;9.926;2022-08-03T05:59:26;9.85;;;6.75;;
17953;SDS011;9102;53.548;9.926;2022-08-03T06:01:54;12.30;;;6.72;;
17953;SDS011;9102;53.548;9.926;2022-08-03T06:04:21;13.77;;;7.30;;
17953;SDS011;9102;53.548;9.926;2022-08-03T06:06:48;14.38;;;7.20;;
17953;SDS011;9102;53.548;9.926;2022-08-03T06:09:15;10.55;;;6.97;;
17953;SDS011;9102;53.548;9.926;2022-08-03T06:11:42;7.82;;;5.90;;
17953;SDS011;9102;53.548;9.926;2022-08-03T06:14:09;9.25;;;6.05;;
17953;SDS011;9102;53.548;9.926;2022-08-03T06:16:36;13.48;;;6.70;;
17953;SDS011;9102;53.548;9.926;2022-08-03T06:19:04;11.95;;;6.45;;
17953;SDS011;9102;53.548;9.926;2022-08-03T06:21:31;10.38;;;6.10;;
17953;SDS011;9102;53.548;9.926;2022-08-03T06:23:58;11.27;;;6.15;;
17953;SDS011;9102;53.548;9.926;2022-08-03T06:26:25;11.50;;;5.70;;
17953;SDS011;9102;53.548;9.926;2022-08-03T06:28:53;11.45;;;5.43;;
17953;SDS011;9102;53.548;9.926;2022-08-03T06:31:20;8.40;;;5.15;;
17953;SDS011;9102;53.548;9.926;2022-08-03T06:33:49;8.90;;;4.50;;
17953;SDS011;9102;53.548;9.926;2022-08-03T06:36:18;11.40;;;5.38;;
17953;SDS011;9102;53.548;9.926;2022-08-03T06:38:44;14.20;;;5.30;;
17953;SDS011;9102;53.548;9.926;2022-08-03T06:41:11;8.82;;;4.68;;
17953;SDS011;9102;53.548;9.926;2022-08-03T06:43:38;12.75;;;4.60;;
17953;SDS011;9102;53.548;9.926;2022-08-03T06:46:06;11.63;;;4.32;;
17953;SDS011;9102;53.548;9.926;2022-08-03T06:48:35;12.77;;;4.25;;
17953;SDS011;9102;53.548;9.926;2022-08-03T06:51:01;8.23;;;4.22;;
17953;SDS011;9102;53.548;9.926;2022-08-03T06:53:30;8.15;;;4.07;;
17953;SDS011;9102;53.548;9.926;2022-08-03T06:55:57;9.48;;;5.13;;
17953;SDS011;9102;53.548;9.926;2022-08-03T06:58:23;12.80;;;5.35;;
17953;SDS011;9102;53.548;9.926;2022-08-03T07:00:50;11.70;;;5.05;;
17953;SDS011;9102;53.548;9.926;2022-08-03T07:03:17;11.27;;;4.47;;
17953;SDS011;9102;53.548;9.926;2022-08-03T07:05:44;10.48;;;4.55;;
17953;SDS011;9102;53.548;9.926;2022-08-03T07:08:13;7.47;;;4.38;;
17953;SDS011;9102;53.548;9.926;2022-08-03T07:10:41;11.00;;;4.15;;
17953;SDS011;9102;53.548;9.926;2022-08-03T07:13:08;8.40;;;4.10;;
17953;SDS011;9102;53.548;9.926;2022-08-03T07:15:35;8.98;;;4.05;;
17953;SDS011;9102;53.548;9.926;2022-08-03T07:18:03;5.70;;;3.50;;
17953;SDS011;9102;53.548;9.926;2022-08-03T07:20:30;7.57;;;4.60;;
17953;SDS011;9102;53.548;9.926;2022-08-03T07:22:57;7.28;;;3.10;;
17953;SDS011;9102;53.548;9.926;2022-08-03T07:25:24;5.15;;;2.80;;
17953;SDS011;9102;53.548;9.926;2022-08-03T07:27:52;7.25;;;2.45;;
17953;SDS011;9102;53.548;9.926;2022-08-03T07:30:19;3.72;;;2.78;;
17953;SDS011;9102;53.548;9.926;2022-08-03T07:32:46;7.63;;;2.63;;
17953;SDS011;9102;53.548;9.926;2022-08-03T07:35:13;4.32;;;3.13;;
17953;SDS011;9102;53.548;9.926;2022-08-03T07:37:40;3.67;;;2.50;;
17953;SDS011;9102;53.548;9.926;2022-08-03T07:40:06;7.60;;;3.20;;
17953;SDS011;9102;53.548;9.926;2022-08-03T07:42:34;6.43;;;2.85;;
17953;SDS011;9102;53.548;9.926;2022-08-03T07:45:02;5.15;;;3.28;;
17953;SDS011;9102;53.548;9.926;2022-08-03T07:47:29;5.70;;;2.30;;
17953;SDS011;9102;53.548;9.926;2022-08-03T07:49:57;5.40;;;2.83;;
17953;SDS011;9102;53.548;9.926;2022-08-03T07:52:23;7.18;;;3.47;;
17953;SDS011;9102;53.548;9.926;2022-08-03T07:55:08;5.45;;;2.40;;
17953;SDS011;9102;53.548;9.926;2022-08-03T07:57:36;5.45;;;2.80;;
17953;SDS011;9102;53.548;9.926;2022-08-03T08:00:05;4.13;;;2.53;;
17953;SDS011;9102;53.548;9.926;2022-08-03T08:02:37;4.22;;;2.85;;
17953;SDS011;9102;53.548;9.926;2022-08-03T08:05:04;8.77;;;3.30;;
17953;SDS011;9102;53.548;9.926;2022-08-03T08:07:31;4.10;;;2.47;;
17953;SDS011;9102;53.548;9.926;2022-08-03T08:09:58;2.90;;;2.25;;
17953;SDS011;9102;53.548;9.926;2022-08-03T08:12:25;4.80;;;2.60;;
17953;SDS011;9102;53.548;9.926;2022-08-03T08:14:52;7.60;;;3.33;;
17953;SDS011;9102;53.548;9.926;2022-08-03T08:17:20;4.28;;;3.00;;
17953;SDS011;9102;53.548;9.926;2022-08-03T08:19:47;5.60;;;2.30;;
17953;SDS011;9102;53.548;9.926;2022-08-03T08:22:14;3.70;;;2.40;;
17953;SDS011;9102;53.548;9.926;2022-08-03T08:24:40;5.28;;;4.05;;
17953;SDS011;9102;53.548;9.926;2022-08-03T08:27:08;4.00;;;2.10;;
17953;SDS011;9102;53.548;9.926;2022-08-03T08:29:36;4.55;;;2.05;;
17953;SDS011;9102;53.548;9.926;2022-08-03T08:32:03;5.35;;;2.33;;
17953;SDS011;9102;53.548;9.926;2022-08-03T08:34:31;4.88;;;2.47;;
17953;SDS011;9102;53.548;9.926;2022-08-03T08:36:58;5.65;;;2.38;;
17953;SDS011;9102;53.548;9.926;2022-08-03T08:39:26;6.70;;;2.50;;
17953;SDS011;9102;53.548;9.926;2022-08-03T08:41:52;4.40;;;2.00;;
17953;SDS011;9102;53.548;9.926;2022-08-03T08:44:19;7.22;;;2.20;;
17953;SDS011;9102;53.548;9.926;2022-08-03T08:46:46;5.32;;;2.25;;
17953;SDS011;9102;53.548;9.926;2022-08-03T08:49:14;6.53;;;2.13;;
17953;SDS011;9102;53.548;9.926;2022-08-03T08:51:45;9.40;;;2.85;;
17953;SDS011;9102;53.548;9.926;2022-08-03T08:54:14;2.92;;;2.15;;
17953;SDS011;9102;53.548;9.926;2022-08-03T08:56:42;5.32;;;2.30;;
17953;SDS011;9102;53.548;9.926;2022-08-03T08:59:09;6.30;;;2.63;;
17953;SDS011;9102;53.548;9.926;2022-08-03T09:01:37;6.53;;;2.45;;
17953;SDS011;9102;53.548;9.926;2022-08-03T09:04:04;3.15;;;2.08;;
17953;SDS011;9102;53.548;9.926;2022-08-03T09:06:33;6.07;;;2.72;;
17953;SDS011;9102;53.548;9.926;2022-08-03T09:09:02;5.45;;;1.70;;
17953;SDS011;9102;53.548;9.926;2022-08-03T09:11:31;7.20;;;2.05;;
17953;SDS011;9102;53.548;9.926;2022-08-03T09:13:57;4.85;;;1.90;;
17953;SDS011;9102;53.548;9.926;2022-08-03T09:16:24;5.05;;;1.98;;
17953;SDS011;9102;53.548;9.926;2022-08-03T09:18:52;5.80;;;1.92;;
17953;SDS011;9102;53.548;9.926;2022-08-03T09:21:20;10.55;;;2.00;;
17953;SDS011;9102;53.548;9.926;2022-08-03T09:23:49;3.05;;;1.90;;
17953;SDS011;9102;53.548;9.926;2022-08-03T09:26:22;5.60;;;2.00;;
17953;SDS011;9102;53.548;9.926;2022-08-03T09:28:54;7.00;;;1.95;;
17953;SDS011;9102;53.548;9.926;2022-08-03T09:31:29;3.22;;;1.70;;
17953;SDS011;9102;53.548;9.926;2022-08-03T09:33:56;4.75;;;2.60;;
17953;SDS011;9102;53.548;9.926;2022-08-03T09:36:33;6.63;;;2.97;;
17953;SDS011;9102;53.548;9.926;2022-08-03T09:39:04;5.90;;;2.50;;
17953;SDS011;9102;53.548;9.926;2022-08-03T09:41:36;6.07;;;2.50;;
17953;SDS011;9102;53.548;9.926;2022-08-03T09:44:04;6.20;;;2.17;;
17953;SDS011;9102;53.548;9.926;2022-08-03T09:46:31;6.90;;;1.70;;
17953;SDS011;9102;53.548;9.926;2022-08-03T09:49:12;6.50;;;1.75;;
17953;SDS011;9102;53.548;9.926;2022-08-03T09:51:39;7.85;;;2.30;;
17953;SDS011;9102;53.548;9.926;2022-08-03T09:54:06;6.22;;;1.52;;
17953;SDS011;9102;53.548;9.926;2022-08-03T09:56:38;7.60;;;2.25;;
17953;SDS011;9102;53.548;9.926;2022-08-03T09:59:06;6.63;;;2.15;;
17953;SDS011;9102;53.548;9.926;2022-08-03T10:01:33;5.10;;;1.67;;
17953;SDS011;9102;53.548;9.926;2022-08-03T10:04:01;4.97;;;1.42;;
17953;SDS011;9102;53.548;9.926;2022-08-03T10:06:28;3.67;;;1.63;;
17953;SDS011;9102;53.548;9.926;2022-08-03T10:09:03;3.00;;;1.70;;
17953;SDS011;9102;53.548;9.926;2022-08-03T10:11:32;8.50;;;2.15;;
17953;SDS011;9102;53.548;9.926;2022-08-03T10:14:02;6.90;;;1.85;;
17953;SDS011;9102;53.548;9.926;2022-08-03T10:16:31;3.03;;;1.77;;
17953;SDS011;9102;53.548;9.926;2022-08-03T10:18:59;7.18;;;1.80;;
17953;SDS011;9102;53.548;9.926;2022-08-03T10:21:27;5.30;;;2.00;;
17953;SDS011;9102;53.548;9.926;2022-08-03T10:24:01;6.05;;;2.13;;
17953;SDS011;9102;53.548;9.926;2022-08-03T10:26:30;5.70;;;2.30;;
17953;SDS011;9102;53.548;9.926;2022-08-03T10:28:58;8.95;;;2.08;;
17953;SDS011;9102;53.548;9.926;2022-08-03T10:31:31;7.15;;;2.17;;
17953;SDS011;9102;53.548;9.926;2022-08-03T10:34:05;3.20;;;1.58;;
17953;SDS011;9102;53.548;9.926;2022-08-03T10:36:40;7.10;;;1.80;;
17953;SDS011;9102;53.548;9.926;2022-08-03T10:39:08;7.05;;;1.70;;
17953;SDS011;9102;53.548;9.926;2022-08-03T10:41:38;6.50;;;1.83;;
17953;SDS011;9102;53.548;9.926;2022-08-03T10:44:08;4.47;;;1.70;;
17953;SDS011;9102;53.548;9.926;2022-08-03T10:46:38;4.03;;;1.70;;
17953;SDS011;9102;53.548;9.926;2022-08-03T10:49:07;3.75;;;1.80;;
17953;SDS011;9102;53.548;9.926;2022-08-03T10:51:37;4.45;;;1.80;;
17953;SDS011;9102;53.548;9.926;2022-08-03T10:54:04;4.60;;;1.60;;
17953;SDS011;9102;53.548;9.926;2022-08-03T10:56:37;6.97;;;1.75;;
17953;SDS011;9102;53.548;9.926;2022-08-03T11:05:29;7.07;;;3.70;;
17953;SDS011;9102;53.548;9.926;2022-08-03T11:10:47;5.93;;;2.13;;
17953;SDS011;9102;53.548;9.926;2022-08-03T11:13:15;4.35;;;1.40;;
17953;SDS011;9102;53.548;9.926;2022-08-03T11:15:43;8.25;;;2.20;;
17953;SDS011;9102;53.548;9.926;2022-08-03T11:18:13;6.68;;;1.65;;
17953;SDS011;9102;53.548;9.926;2022-08-03T11:20:43;3.80;;;1.63;;
17953;SDS011;9102;53.548;9.926;2022-08-03T11:23:14;7.10;;;1.80;;
17953;SDS011;9102;53.548;9.926;2022-08-03T11:28:37;6.00;;;1.77;;
17953;SDS011;9102;53.548;9.926;2022-08-03T11:34:15;3.92;;;1.60;;
17953;SDS011;9102;53.548;9.926;2022-08-03T11:39:43;5.85;;;1.52;;
17953;SDS011;9102;53.548;9.926;2022-08-03T11:45:08;5.93;;;1.48;;
17953;SDS011;9102;53.548;9.926;2022-08-03T11:47:38;5.78;;;1.35;;
17953;SDS011;9102;53.548;9.926;2022-08-03T11:50:07;4.22;;;1.77;;
17953;SDS011;9102;53.548;9.926;2022-08-03T11:52:36;6.07;;;2.38;;
17953;SDS011;9102;53.548;9.926;2022-08-03T11:55:08;6.75;;;1.90;;
17953;SDS011;9102;53.548;9.926;2022-08-03T11:57:36;4.47;;;1.65;;
17953;SDS011;9102;53.548;9.926;2022-08-03T12:00:17;3.80;;;1.60;;
17953;SDS011;9102;53.548;9.926;2022-08-03T12:03:03;4.82;;;1.80;;
17953;SDS011;9102;53.548;9.926;2022-08-03T12:05:43;4.15;;;1.38;;
17953;SDS011;9102;53.548;9.926;2022-08-03T12:08:12;5.68;;;1.83;;
17953;SDS011;9102;53.548;9.926;2022-08-03T12:10:44;7.65;;;1.88;;
17953;SDS011;9102;53.548;9.926;2022-08-03T12:13:13;6.20;;;1.67;;
17953;SDS011;9102;53.548;9.926;2022-08-03T12:15:40;7.70;;;1.80;;
17953;SDS011;9102;53.548;9.926;2022-08-03T12:18:15;10.77;;;1.60;;
17953;SDS011;9102;53.548;9.926;2022-08-03T12:20:44;31.38;;;26.73;;
17953;SDS011;9102;53.548;9.926;2022-08-03T12:23:12;10.38;;;1.98;;
17953;SDS011;9102;53.548;9.926;2022-08-03T12:25:39;2.45;;;1.40;;
17953;SDS011;9102;53.548;9.926;2022-08-03T12:28:09;6.70;;;1.77;;
17953;SDS011;9102;53.548;9.926;2022-08-03T12:30:43;6.63;;;1.50;;
17953;SDS011;9102;53.548;9.926;2022-08-03T12:33:12;5.15;;;1.95;;
17953;SDS011;9102;53.548;9.926;2022-08-03T12:35:39;4.72;;;1.73;;
17953;SDS011;9102;53.548;9.926;2022-08-03T12:38:07;5.65;;;1.80;;
17953;SDS011;9102;53.548;9.926;2022-08-03T12:40:35;4.47;;;1.92;;
17953;SDS011;9102;53.548;9.926;2022-08-03T12:43:09;7.93;;;2.15;;
17953;SDS011;9102;53.548;9.926;2022-08-03T12:45:36;4.57;;;1.58;;
17953;SDS011;9102;53.548;9.926;2022-08-03T12:48:06;7.93;;;4.50;;
17953;SDS011;9102;53.548;9.926;2022-08-03T12:50:35;5.25;;;1.73;;
17953;SDS011;9102;53.548;9.926;2022-08-03T12:53:03;5.82;;;1.90;;
17953;SDS011;9102;53.548;9.926;2022-08-03T12:55:32;8.23;;;2.00;;
17953;SDS011;9102;53.548;9.926;2022-08-03T12:58:00;4.00;;;1.73;;
17953;SDS011;9102;53.548;9.926;2022-08-03T13:00:28;3.72;;;1.80;;
17953;SDS011;9102;53.548;9.926;2022-08-03T13:02:58;10.35;;;1.60;;
17953;SDS011;9102;53.548;9.926;2022-08-03T13:05:27;7.70;;;2.00;;
17953;SDS011;9102;53.548;9.926;2022-08-03T13:07:55;3.55;;;1.80;;
17953;SDS011;9102;53.548;9.926;2022-08-03T13:10:29;5.45;;;1.38;;
17953;SDS011;9102;53.548;9.926;2022-08-03T13:12:58;3.30;;;1.55;;
17953;SDS011;9102;53.548;9.926;2022-08-03T13:15:27;4.72;;;1.90;;
17953;SDS011;9102;53.548;9.926;2022-08-03T13:17:55;4.25;;;1.70;;
17953;SDS011;9102;53.548;9.926;2022-08-03T13:20:22;6.15;;;1.70;;
17953;SDS011;9102;53.548;9.926;2022-08-03T13:22:49;5.85;;;1.50;;
17953;SDS011;9102;53.548;9.926;2022-08-03T13:25:16;4.70;;;1.80;;
17953;SDS011;9102;53.548;9.926;2022-08-03T13:27:44;3.58;;;1.42;;
17953;SDS011;9102;53.548;9.926;2022-08-03T13:30:13;5.90;;;1.95;;
17953;SDS011;9102;53.548;9.926;2022-08-03T13:32:40;3.53;;;1.67;;
17953;SDS011;9102;53.548;9.926;2022-08-03T13:35:07;6.05;;;1.50;;
17953;SDS011;9102;53.548;9.926;2022-08-03T13:37:35;4.82;;;1.88;;
17953;SDS011;9102;53.548;9.926;2022-08-03T13:40:03;9.45;;;1.88;;
17953;SDS011;9102;53.548;9.926;2022-08-03T13:42:32;7.30;;;1.70;;
17953;SDS011;9102;53.548;9.926;2022-08-03T13:45:00;5.05;;;2.28;;
17953;SDS011;9102;53.548;9.926;2022-08-03T13:47:30;6.53;;;1.83;;
17953;SDS011;9102;53.548;9.926;2022-08-03T13:49:57;4.03;;;1.73;;
17953;SDS011;9102;53.548;9.926;2022-08-03T13:52:24;5.63;;;1.98;;
17953;SDS011;9102;53.548;9.926;2022-08-03T13:54:51;6.72;;;1.77;;
17953;SDS011;9102;53.548;9.926;2022-08-03T13:57:18;10.15;;;2.03;;
17953;SDS011;9102;53.548;9.926;2022-08-03T13:59:45;6.65;;;1.83;;
17953;SDS011;9102;53.548;9.926;2022-08-03T14:02:12;7.95;;;2.22;;
17953;SDS011;9102;53.548;9.926;2022-08-03T14:04:40;3.00;;;1.77;;
17953;SDS011;9102;53.548;9.926;2022-08-03T14:07:07;5.03;;;1.73;;
17953;SDS011;9102;53.548;9.926;2022-08-03T14:09:33;5.70;;;1.77;;
17953;SDS011;9102;53.548;9.926;2022-08-03T14:12:00;2.33;;;1.42;;
17953;SDS011;9102;53.548;9.926;2022-08-03T14:14:27;4.05;;;1.30;;
17953;SDS011;9102;53.548;9.926;2022-08-03T14:16:54;3.95;;;2.25;;
17953;SDS011;9102;53.548;9.926;2022-08-03T14:19:21;7.75;;;1.77;;
17953;SDS011;9102;53.548;9.926;2022-08-03T14:21:49;6.75;;;2.00;;
17953;SDS011;9102;53.548;9.926;2022-08-03T14:24:16;7.00;;;1.90;;
17953;SDS011;9102;53.548;9.926;2022-08-03T14:26:43;4.90;;;1.60;;
17953;SDS011;9102;53.548;9.926;2022-08-03T14:29:09;3.45;;;2.05;;
17953;SDS011;9102;53.548;9.926;2022-08-03T14:31:36;4.82;;;1.60;;
17953;SDS011;9102;53.548;9.926;2022-08-03T14:34:03;5.95;;;1.80;;
17953;SDS011;9102;53.548;9.926;2022-08-03T14:36:30;4.32;;;1.60;;
17953;SDS011;9102;53.548;9.926;2022-08-03T14:38:58;6.63;;;1.77;;
17953;SDS011;9102;53.548;9.926;2022-08-03T14:41:25;5.20;;;1.75;;
17953;SDS011;9102;53.548;9.926;2022-08-03T14:43:52;7.93;;;2.30;;
17953;SDS011;9102;53.548;9.926;2022-08-03T14:46:20;4.75;;;1.98;;
17953;SDS011;9102;53.548;9.926;2022-08-03T14:48:47;6.65;;;2.10;;
17953;SDS011;9102;53.548;9.926;2022-08-03T14:51:14;5.32;;;1.98;;
17953;SDS011;9102;53.548;9.926;2022-08-03T14:53:41;4.53;;;1.77;;
17953;SDS011;9102;53.548;9.926;2022-08-03T14:56:09;9.75;;;2.17;;
17953;SDS011;9102;53.548;9.926;2022-08-03T14:58:36;7.10;;;2.00;;
17953;SDS011;9102;53.548;9.926;2022-08-03T15:01:03;5.38;;;1.65;;
17953;SDS011;9102;53.548;9.926;2022-08-03T15:03:31;8.10;;;2.22;;
17953;SDS011;9102;53.548;9.926;2022-08-03T15:05:58;6.25;;;1.77;;
17953;SDS011;9102;53.548;9.926;2022-08-03T15:08:25;8.30;;;1.63;;
17953;SDS011;9102;53.548;9.926;2022-08-03T15:10:52;11.10;;;2.42;;
17953;SDS011;9102;53.548;9.926;2022-08-03T15:13:21;10.45;;;2.15;;
17953;SDS011;9102;53.548;9.926;2022-08-03T15:15:49;5.85;;;1.70;;
17953;SDS011;9102;53.548;9.926;2022-08-03T15:18:16;8.10;;;1.88;;
17953;SDS011;9102;53.548;9.926;2022-08-03T15:20:44;4.90;;;1.85;;
17953;SDS011;9102;53.548;9.926;2022-08-03T15:23:13;6.40;;;1.67;;
17953;SDS011;9102;53.548;9.926;2022-08-03T15:25:40;9.20;;;2.00;;
17953;SDS011;9102;53.548;9.926;2022-08-03T15:28:08;5.45;;;1.85;;
17953;SDS011;9102;53.548;9.926;2022-08-03T15:30:36;7.18;;;1.50;;